Otisville, Minnesota
Current Conditions -  °F | °C
As of 6:55 AM on Friday 19 Dec 2014 (Local Time) from KOEO Reporting Station
Overcast Overcast  
Wind Chill: 15°   Ceiling: 5500
Heat Index: 23°   Visibility: 10mi
Dew Point: 19°   Wind: 7mph
Humidity: 85%   Direction: 150°SSE
Pressure: 30.28"   Gusts: NA
Location:  45.2742°N, 92.8215°W
Report Text: KOEO 191255Z AUTO 15006KT 10SM SCT042 BKN055 OVC065 M05/M07 A3028 RMK AO2 T10511072
Loading
Personal Weather Stations






























Interactive Weather Map New forecast layout! Learn more

10-Day Weather Forecast

Advertisements
Track Severe Weather on mobile